Time;durP1;ratioP1;P1;durP2;ratioP2;P2;SDS_P1;SDS_P2;PMS_P1;PMS_P2;Temp;Humidity;BMP_temperature;BMP_pressure;BME280_temperature;BME280_humidity;BME280_pressure;Samples;Min_cycle;Max_cycle;Signal;HPM_P1;HPM_P2
2022/09/25 00:00:55;;;;;;;4.82;2.63;;;9.40;99.90;;;;;;4999480;28;90289;-30
2022/09/25 00:03:22;;;;;;;5.35;2.03;;;9.30;99.90;;;;;;4998926;28;90307;-32
2022/09/25 00:05:48;;;;;;;7.88;3.30;;;9.30;99.90;;;;;;4999596;28;88377;-30
2022/09/25 00:08:15;;;;;;;5.80;2.70;;;9.30;99.90;;;;;;4999720;28;88525;-31
2022/09/25 00:10:43;;;;;;;5.45;3.40;;;9.30;99.90;;;;;;4999516;28;89874;-31
2022/09/25 00:13:09;;;;;;;3.97;2.67;;;9.30;99.90;;;;;;4999337;28;88287;-28
2022/09/25 00:15:36;;;;;;;6.80;2.72;;;9.30;99.90;;;;;;4999624;28;88709;-30
2022/09/25 00:18:01;;;;;;;8.73;3.00;;;9.20;99.90;;;;;;5000061;28;89303;-31
2022/09/25 00:20:27;;;;;;;7.70;4.10;;;9.20;99.90;;;;;;4999044;28;90256;-30
2022/09/25 00:22:53;;;;;;;4.53;3.05;;;9.20;99.90;;;;;;4999417;28;90551;-29
2022/09/25 00:25:19;;;;;;;9.18;3.30;;;9.20;99.90;;;;;;4998516;28;90236;-30
2022/09/25 00:27:45;;;;;;;9.95;4.22;;;9.20;99.90;;;;;;4999695;28;89118;-29
2022/09/25 00:30:12;;;;;;;4.85;2.67;;;9.20;99.90;;;;;;4999530;28;90872;-29
2022/09/25 00:32:39;;;;;;;4.07;2.80;;;9.20;99.90;;;;;;4998611;28;89431;-31
2022/09/25 00:35:05;;;;;;;9.18;3.92;;;9.20;99.90;;;;;;4999741;28;90282;-32
2022/09/25 00:37:36;;;;;;;6.72;3.33;;;9.20;99.90;;;;;;4998766;28;88857;-35
2022/09/25 00:40:04;;;;;;;4.78;2.22;;;9.20;99.90;;;;;;4999695;28;91197;-29
2022/09/25 00:42:31;;;;;;;9.20;3.13;;;9.20;99.90;;;;;;4998548;28;90468;-30
2022/09/25 00:45:02;;;;;;;6.15;3.85;;;9.20;99.90;;;;;;5035298;22;88429;-32
2022/09/25 00:47:30;;;;;;;5.55;3.38;;;9.20;99.90;;;;;;4998179;28;89512;-30
2022/09/25 00:49:59;;;;;;;8.95;3.17;;;9.20;99.90;;;;;;4984883;28;89362;-31
2022/09/25 00:52:25;;;;;;;;;;;9.20;99.90;;;;;;4999199;28;90021;-29
2022/09/25 00:54:59;;;;;;;12.80;3.40;;;9.20;99.90;;;;;;5000856;28;89967;-32
2022/09/25 00:57:28;;;;;;;7.35;4.13;;;9.20;99.90;;;;;;4998499;28;88264;-29
2022/09/25 01:00:00;;;;;;;7.10;3.33;;;9.10;99.90;;;;;;4999097;28;91124;-31
2022/09/25 01:02:30;;;;;;;5.35;3.17;;;9.20;99.90;;;;;;4998942;28;91365;-31
2022/09/25 01:04:59;;;;;;;10.65;2.70;;;9.10;99.90;;;;;;4998801;28;89351;-29
2022/09/25 01:07:24;;;;;;;4.43;2.67;;;9.10;99.90;;;;;;4998399;28;88246;-28
2022/09/25 01:09:50;;;;;;;12.60;3.85;;;9.10;99.90;;;;;;4999293;28;89802;-27
2022/09/25 01:12:16;;;;;;;3.75;3.40;;;9.10;99.90;;;;;;4998737;28;90247;-28
2022/09/25 01:14:42;;;;;;;5.78;2.67;;;9.10;99.90;;;;;;4998337;28;90377;-32
2022/09/25 01:17:20;;;;;;;5.07;2.95;;;9.10;99.90;;;;;;5000241;28;89697;-32
2022/09/25 01:19:52;;;;;;;4.72;2.97;;;9.10;99.90;;;;;;5002734;28;90540;-32
2022/09/25 01:22:46;;;;;;;5.53;2.72;;;9.00;99.90;;;;;;5000004;28;89683;-31
2022/09/25 01:25:33;;;;;;;6.25;3.65;;;9.10;99.90;;;;;;4981633;28;90383;-35
2022/09/25 01:28:33;;;;;;;3.50;2.73;;;9.10;99.90;;;;;;4982218;28;88047;-30
2022/09/25 01:31:08;;;;;;;6.80;3.53;;;9.00;99.90;;;;;;4983156;28;89999;-28
2022/09/25 01:33:42;;;;;;;6.10;3.45;;;8.90;99.90;;;;;;4963387;28;89450;-33
2022/09/25 01:36:12;;;;;;;10.93;3.88;;;8.90;99.90;;;;;;4982416;28;89116;-31
2022/09/25 01:39:01;;;;;;;15.77;3.70;;;8.90;99.90;;;;;;4981736;28;90009;-30
2022/09/25 01:41:34;;;;;;;16.15;4.10;;;8.90;99.90;;;;;;4981807;28;90386;-31
2022/09/25 01:44:29;;;;;;;4.47;3.35;;;8.90;99.90;;;;;;4981957;28;89084;-29
2022/09/25 01:47:04;;;;;;;9.77;3.47;;;8.80;99.90;;;;;;4971347;28;90499;-34
2022/09/25 01:49:38;;;;;;;5.30;3.53;;;8.80;99.90;;;;;;4981682;28;89284;-32
2022/09/25 01:52:09;;;;;;;8.27;3.60;;;8.80;99.90;;;;;;4981996;28;90036;-30
2022/09/25 01:54:44;;;;;;;5.65;3.05;;;8.80;99.90;;;;;;4981657;28;89541;-30
2022/09/25 01:57:17;;;;;;;3.88;2.78;;;8.80;99.90;;;;;;4982384;28;89348;-29
2022/09/25 01:59:45;;;;;;;5.18;3.33;;;8.80;99.90;;;;;;4982494;28;89134;-30
2022/09/25 02:02:14;;;;;;;6.40;3.47;;;8.80;99.90;;;;;;4982052;28;89196;-30
2022/09/25 02:04:53;;;;;;;11.70;4.25;;;8.80;99.90;;;;;;4981688;28;90011;-32
2022/09/25 02:07:26;;;;;;;8.43;3.60;;;8.80;99.90;;;;;;4981192;28;90441;-30
2022/09/25 02:09:56;;;;;;;4.45;3.30;;;8.80;99.90;;;;;;4981506;28;89513;-30
2022/09/25 02:12:33;;;;;;;7.20;3.28;;;8.80;99.90;;;;;;4980897;28;89952;-29
2022/09/25 02:15:15;;;;;;;7.13;3.75;;;8.80;99.90;;;;;;4981825;28;89702;-30
2022/09/25 02:20:35;;;;;;;4.72;3.10;;;8.80;99.90;;;;;;4982058;28;89713;-29
2022/09/25 02:23:22;;;;;;;4.78;3.33;;;8.70;99.90;;;;;;4981717;28;91473;-30
2022/09/25 02:25:59;;;;;;;9.43;3.65;;;8.70;99.90;;;;;;4981420;28;90503;-31
2022/09/25 02:28:25;;;;;;;7.22;3.80;;;8.70;99.90;;;;;;4980071;28;90819;-29
2022/09/25 02:30:54;;;;;;;4.72;3.13;;;8.70;99.90;;;;;;4981530;28;90002;-31
2022/09/25 02:33:20;;;;;;;4.18;2.70;;;8.70;99.90;;;;;;4980845;28;90276;-30
2022/09/25 02:35:45;;;;;;;12.02;3.90;;;8.70;99.90;;;;;;4980930;28;89836;-32
2022/09/25 02:38:12;;;;;;;4.47;2.90;;;8.60;99.90;;;;;;4980836;28;89794;-34
2022/09/25 02:40:53;;;;;;;5.75;3.67;;;8.70;99.90;;;;;;4981748;28;90050;-32
2022/09/25 02:44:01;;;;;;;10.98;3.50;;;8.60;99.90;;;;;;4980809;28;90278;-29
2022/09/25 02:47:07;;;;;;;3.58;3.17;;;8.60;99.90;;;;;;4962244;28;89042;-31
2022/09/25 02:50:01;;;;;;;6.28;3.78;;;8.60;99.90;;;;;;4980991;28;89708;-29
2022/09/25 02:52:56;;;;;;;6.75;2.90;;;8.50;99.90;;;;;;4980995;28;88185;-31
2022/09/25 02:55:31;;;;;;;3.17;2.63;;;8.50;99.90;;;;;;4980292;28;88961;-32
2022/09/25 02:58:29;;;;;;;11.20;3.97;;;8.50;99.90;;;;;;4980985;28;91236;-28
2022/09/25 03:00:58;;;;;;;7.65;3.15;;;8.50;99.90;;;;;;4973217;28;90813;-30
2022/09/25 03:03:26;;;;;;;8.77;4.32;;;8.40;99.90;;;;;;4980927;28;87610;-30
2022/09/25 03:05:55;;;;;;;10.43;3.30;;;8.40;99.90;;;;;;4980756;28;90087;-30
2022/09/25 03:08:37;;;;;;;5.35;3.15;;;8.40;99.90;;;;;;4980379;28;89658;-31
2022/09/25 03:11:06;;;;;;;7.43;3.97;;;8.30;99.90;;;;;;4981129;28;89049;-31
2022/09/25 03:13:32;;;;;;;3.20;2.78;;;8.30;99.90;;;;;;4980947;28;87550;-31
2022/09/25 03:16:10;;;;;;;9.73;3.75;;;8.30;99.90;;;;;;4981136;28;89279;-33
2022/09/25 03:18:36;;;;;;;8.93;4.07;;;8.30;99.90;;;;;;4979891;28;89698;-30
2022/09/25 03:21:03;;;;;;;12.30;3.90;;;8.30;99.90;;;;;;4980719;28;89834;-31
2022/09/25 03:23:30;;;;;;;8.05;3.92;;;8.40;99.90;;;;;;4980400;28;89081;-29
2022/09/25 03:25:56;;;;;;;6.53;3.63;;;8.40;99.90;;;;;;4979924;28;90263;-32
2022/09/25 03:28:22;;;;;;;8.25;3.50;;;8.30;99.90;;;;;;4980717;28;90202;-30
2022/09/25 03:30:59;;;;;;;3.50;3.08;;;8.30;99.90;;;;;;4980001;28;89775;-29
2022/09/25 03:33:27;;;;;;;5.00;3.40;;;8.40;99.90;;;;;;4979834;28;89287;-28
2022/09/25 03:36:04;;;;;;;6.33;3.10;;;8.40;99.90;;;;;;4980162;28;90365;-29
2022/09/25 03:38:29;;;;;;;7.40;3.88;;;8.40;99.90;;;;;;4980574;28;90268;-32
2022/09/25 03:40:55;;;;;;;6.93;3.33;;;8.40;99.90;;;;;;4980147;28;89377;-29
2022/09/25 03:43:21;;;;;;;11.50;3.70;;;8.30;99.90;;;;;;4979345;28;89868;-33
2022/09/25 03:45:46;;;;;;;6.18;3.30;;;8.40;99.90;;;;;;4980035;28;90224;-31
2022/09/25 03:48:12;;;;;;;6.93;3.25;;;8.30;99.90;;;;;;4979084;28;90123;-30
2022/09/25 03:50:38;;;;;;;8.40;3.30;;;8.30;99.90;;;;;;4980770;28;90617;-31
2022/09/25 03:53:04;;;;;;;5.50;2.65;;;8.30;99.90;;;;;;4980112;28;89369;-30
2022/09/25 03:55:29;;;;;;;14.15;4.00;;;8.30;99.90;;;;;;4979719;28;91020;-30
2022/09/25 03:57:55;;;;;;;13.50;3.85;;;8.30;99.90;;;;;;4980147;28;89834;-28
2022/09/25 04:00:22;;;;;;;7.82;2.97;;;8.30;99.90;;;;;;4979092;28;90793;-30
2022/09/25 04:02:49;;;;;;;6.90;3.33;;;8.20;99.90;;;;;;4980429;28;89044;-29
2022/09/25 04:05:15;;;;;;;5.53;2.92;;;8.20;99.90;;;;;;4979545;28;91880;-30
2022/09/25 04:07:41;;;;;;;10.43;3.15;;;8.20;99.90;;;;;;4980121;28;89046;-29
2022/09/25 04:10:07;;;;;;;7.07;2.72;;;8.20;99.90;;;;;;4979905;28;89793;-30
2022/09/25 04:12:33;;;;;;;7.43;3.80;;;8.20;99.90;;;;;;4979241;28;89975;-30
2022/09/25 04:14:58;;;;;;;5.22;3.65;;;8.20;99.90;;;;;;4979919;28;90558;-30
2022/09/25 04:17:24;;;;;;;9.85;4.20;;;8.20;99.90;;;;;;4980080;28;89524;-30
2022/09/25 04:19:50;;;;;;;4.90;3.83;;;8.20;99.90;;;;;;4979219;28;89570;-29
2022/09/25 04:22:16;;;;;;;8.05;3.58;;;8.20;99.90;;;;;;4979634;28;89365;-32
2022/09/25 04:24:47;;;;;;;5.32;3.38;;;8.20;99.90;;;;;;4979605;28;89373;-29
2022/09/25 04:27:21;;;;;;;9.52;3.15;;;8.30;99.90;;;;;;4980016;28;89521;-29
2022/09/25 04:29:47;;;;;;;6.68;3.22;;;8.30;99.90;;;;;;4979578;28;89700;-32
2022/09/25 04:34:57;;;;;;;11.35;3.65;;;8.30;99.90;;;;;;4978995;28;90156;-31
2022/09/25 04:37:25;;;;;;;3.88;3.33;;;8.30;99.90;;;;;;4978623;28;90470;-30
2022/09/25 04:39:52;;;;;;;8.48;3.92;;;8.30;99.90;;;;;;4979452;28;90092;-30
2022/09/25 04:42:23;;;;;;;5.28;3.22;;;8.30;99.90;;;;;;4979752;28;89578;-32
2022/09/25 04:44:50;;;;;;;14.20;3.55;;;8.30;99.90;;;;;;4979358;28;89722;-29
2022/09/25 04:47:16;;;;;;;6.03;3.63;;;8.30;99.90;;;;;;4978648;28;89543;-30
2022/09/25 04:49:41;;;;;;;16.40;3.83;;;8.30;99.90;;;;;;4979426;28;89964;-31
2022/09/25 04:52:07;;;;;;;9.90;3.83;;;8.30;99.90;;;;;;4978053;28;89325;-29
2022/09/25 04:54:33;;;;;;;7.32;3.90;;;8.30;99.90;;;;;;4978577;28;90346;-33
2022/09/25 04:56:58;;;;;;;5.03;3.30;;;8.30;99.90;;;;;;4978932;28;89807;-31
2022/09/25 04:59:24;;;;;;;4.05;2.35;;;8.20;99.90;;;;;;4978496;28;89162;-33
2022/09/25 05:01:49;;;;;;;3.78;3.20;;;8.20;99.90;;;;;;4979115;28;90318;-30
2022/09/25 05:04:15;;;;;;;4.45;3.13;;;8.20;99.90;;;;;;4978216;28;90119;-28
2022/09/25 05:06:41;;;;;;;6.93;3.10;;;8.20;99.90;;;;;;4979925;28;90071;-30
2022/09/25 05:09:06;;;;;;;5.80;3.60;;;8.20;99.90;;;;;;4978377;28;89947;-30
2022/09/25 05:11:32;;;;;;;5.97;3.00;;;8.20;99.90;;;;;;4979184;28;89318;-32
2022/09/25 05:13:57;;;;;;;10.05;3.45;;;8.20;99.90;;;;;;4978739;28;90781;-30
2022/09/25 05:16:23;;;;;;;8.02;3.40;;;8.20;99.90;;;;;;4978633;28;89990;-31
2022/09/25 05:18:49;;;;;;;5.88;3.05;;;8.10;99.90;;;;;;4979364;28;89619;-30
2022/09/25 05:21:14;;;;;;;3.33;2.97;;;8.10;99.90;;;;;;4978754;28;89857;-28
2022/09/25 05:23:40;;;;;;;14.35;4.47;;;8.10;99.90;;;;;;4979152;28;89965;-29
2022/09/25 05:26:05;;;;;;;4.05;2.83;;;8.10;99.90;;;;;;4978230;28;90952;-29
2022/09/25 05:28:32;;;;;;;9.73;3.25;;;8.10;99.90;;;;;;4957324;28;90457;-33
2022/09/25 05:31:02;;;;;;;4.35;2.90;;;8.10;99.90;;;;;;4977124;28;88761;-30
2022/09/25 05:33:28;;;;;;;4.28;3.03;;;8.10;99.90;;;;;;4979038;28;90183;-31
2022/09/25 05:35:54;;;;;;;6.03;2.97;;;8.10;99.90;;;;;;4978229;28;89632;-30
2022/09/25 05:38:20;;;;;;;9.77;3.60;;;8.10;99.90;;;;;;4978981;28;89545;-31
2022/09/25 05:40:45;;;;;;;4.30;2.70;;;8.10;99.90;;;;;;4979120;28;89307;-29
2022/09/25 05:43:11;;;;;;;6.00;2.97;;;8.10;99.90;;;;;;4978752;28;90712;-30
2022/09/25 05:45:37;;;;;;;5.50;2.88;;;8.10;99.90;;;;;;4978456;28;89585;-30
2022/09/25 05:48:07;;;;;;;6.25;3.17;;;8.20;99.90;;;;;;4978269;28;90183;-29
2022/09/25 05:50:33;;;;;;;8.68;2.95;;;8.10;99.90;;;;;;4978053;28;89537;-29
2022/09/25 05:53:00;;;;;;;6.20;2.33;;;8.10;99.90;;;;;;4979358;28;90417;-30
2022/09/25 05:55:27;;;;;;;9.93;3.23;;;8.20;99.90;;;;;;4978755;28;90029;-31
2022/09/25 05:57:53;;;;;;;7.90;3.47;;;8.20;99.90;;;;;;4977962;28;89388;-31
2022/09/25 06:00:19;;;;;;;6.22;2.80;;;8.20;99.90;;;;;;4978504;28;89510;-33
2022/09/25 06:02:44;;;;;;;9.27;2.95;;;8.20;99.90;;;;;;4979394;28;90368;-30
2022/09/25 06:05:10;;;;;;;5.88;3.25;;;8.30;99.90;;;;;;4981636;28;90104;-32
2022/09/25 06:07:36;;;;;;;7.63;2.17;;;8.30;99.90;;;;;;4981608;28;89817;-28
2022/09/25 06:10:02;;;;;;;10.27;3.33;;;8.30;99.90;;;;;;4981865;28;87541;-32
2022/09/25 06:12:28;;;;;;;7.43;3.35;;;8.30;99.90;;;;;;4981346;28;90281;-29
2022/09/25 06:14:54;;;;;;;6.57;3.85;;;8.40;99.90;;;;;;4981022;28;91770;-31
2022/09/25 06:17:20;;;;;;;8.00;3.15;;;8.40;99.90;;;;;;4980891;28;90633;-30
2022/09/25 06:19:46;;;;;;;6.75;3.28;;;8.50;99.90;;;;;;4981593;28;88043;-31
2022/09/25 06:22:11;;;;;;;6.05;2.88;;;8.60;99.90;;;;;;4981374;28;89792;-35
2022/09/25 06:24:37;;;;;;;3.78;2.63;;;8.70;99.90;;;;;;4981580;28;89543;-29
2022/09/25 06:27:04;;;;;;;7.05;2.88;;;8.70;99.90;;;;;;4981451;28;90091;-31
2022/09/25 06:29:30;;;;;;;2.78;2.20;;;8.80;99.90;;;;;;4980691;28;90463;-31
2022/09/25 06:31:56;;;;;;;9.23;2.78;;;8.80;99.90;;;;;;4981892;28;90642;-33
2022/09/25 06:34:21;;;;;;;7.07;3.13;;;8.80;99.90;;;;;;4981043;28;90883;-29
2022/09/25 06:36:47;;;;;;;6.38;3.25;;;8.90;99.90;;;;;;4980935;28;89307;-30
2022/09/25 06:39:13;;;;;;;5.03;3.15;;;8.90;99.90;;;;;;4980817;28;89114;-29
2022/09/25 06:41:40;;;;;;;4.47;2.45;;;9.00;99.90;;;;;;4980823;28;89917;-31
2022/09/25 06:44:07;;;;;;;7.47;2.83;;;9.00;99.90;;;;;;4981356;28;89816;-30
2022/09/25 06:46:34;;;;;;;4.53;3.15;;;9.10;99.90;;;;;;4981216;28;89678;-29
2022/09/25 06:49:00;;;;;;;3.78;3.20;;;9.10;99.90;;;;;;4980340;28;90065;-29
2022/09/25 06:51:30;;;;;;;10.82;3.13;;;9.20;99.90;;;;;;4980834;28;89072;-30
2022/09/25 06:53:56;;;;;;;7.38;2.53;;;9.30;99.90;;;;;;4980829;28;90122;-31
2022/09/25 06:56:22;;;;;;;12.45;3.75;;;9.30;99.90;;;;;;4981146;28;89254;-29
2022/09/25 06:58:47;;;;;;;5.15;3.75;;;9.40;99.90;;;;;;4980432;28;88367;-31
2022/09/25 07:01:13;;;;;;;3.40;2.35;;;9.40;99.90;;;;;;4980621;28;90071;-29
2022/09/25 07:03:46;;;;;;;3.00;2.40;;;9.50;99.90;;;;;;4979370;28;90621;-29
2022/09/25 07:06:13;;;;;;;7.45;3.25;;;9.50;99.90;;;;;;4981106;28;90529;-33
2022/09/25 07:08:39;;;;;;;7.25;3.20;;;9.60;99.90;;;;;;4980441;28;89040;-33
2022/09/25 07:11:05;;;;;;;4.25;3.03;;;9.80;99.90;;;;;;4980346;28;90045;-30
2022/09/25 07:13:34;;;;;;;4.25;2.53;;;9.80;99.90;;;;;;4979823;28;88811;-30
2022/09/25 07:16:02;;;;;;;3.67;3.33;;;9.90;99.90;;;;;;4979706;28;89937;-30
2022/09/25 07:18:28;;;;;;;5.20;2.72;;;10.00;99.90;;;;;;4979825;28;87803;-33
2022/09/25 07:21:06;;;;;;;4.43;2.42;;;10.10;99.90;;;;;;4980336;28;90053;-32
2022/09/25 07:23:32;;;;;;;5.18;2.88;;;10.20;99.90;;;;;;4980198;28;89671;-33
2022/09/25 07:26:06;;;;;;;4.57;3.17;;;10.40;99.90;;;;;;4979982;28;90405;-33
2022/09/25 07:28:32;;;;;;;9.68;2.67;;;10.50;99.90;;;;;;4979947;28;89493;-30
2022/09/25 07:31:19;;;;;;;10.13;2.70;;;10.60;99.90;;;;;;4980957;28;89284;-28
2022/09/25 07:33:46;;;;;;;4.88;2.90;;;10.60;99.90;;;;;;4967815;28;89492;-31
2022/09/25 07:36:12;;;;;;;8.85;3.38;;;10.70;99.90;;;;;;4977492;28;89606;-34
2022/09/25 07:38:38;;;;;;;3.75;2.55;;;10.80;99.90;;;;;;4977399;28;89578;-29
2022/09/25 07:41:05;;;;;;;10.70;2.85;;;10.90;99.90;;;;;;4967918;28;89928;-30
2022/09/25 07:43:32;;;;;;;6.10;2.67;;;11.00;99.90;;;;;;4964755;28;90001;-29
2022/09/25 07:45:58;;;;;;;20.92;2.72;;;11.20;99.90;;;;;;4979144;28;89981;-30
2022/09/25 07:48:23;;;;;;;9.38;3.13;;;11.30;99.90;;;;;;4979228;28;89741;-30
2022/09/25 07:50:50;;;;;;;6.13;2.92;;;11.40;99.90;;;;;;4979761;28;88734;-34
2022/09/25 07:53:19;;;;;;;5.38;2.20;;;11.50;99.90;;;;;;4979113;28;90074;-30
2022/09/25 07:55:45;;;;;;;5.25;2.88;;;11.60;99.90;;;;;;4980254;28;90547;-29
2022/09/25 07:58:12;;;;;;;6.03;2.75;;;11.70;99.90;;;;;;4979324;28;88464;-29
2022/09/25 08:00:39;;;;;;;5.68;2.30;;;11.90;99.90;;;;;;4979288;28;90456;-32
2022/09/25 08:03:05;;;;;;;7.10;2.53;;;12.00;99.90;;;;;;4980146;28;89297;-31
2022/09/25 08:05:31;;;;;;;4.70;2.50;;;12.10;99.90;;;;;;4970951;28;89910;-30
2022/09/25 08:07:57;;;;;;;5.53;2.08;;;12.20;99.90;;;;;;4977449;28;89043;-33
2022/09/25 08:10:22;;;;;;;4.20;2.60;;;12.30;99.90;;;;;;4977404;28;90330;-31
2022/09/25 08:12:48;;;;;;;5.10;2.38;;;12.50;99.90;;;;;;4972059;28;90864;-32
2022/09/25 08:15:14;;;;;;;8.65;2.67;;;12.70;99.90;;;;;;4978090;28;89283;-33
2022/09/25 08:17:41;;;;;;;3.70;2.90;;;12.80;99.90;;;;;;4976674;28;89148;-30
2022/09/25 08:20:07;;;;;;;2.80;2.08;;;12.90;99.90;;;;;;4973437;28;90170;-32
2022/09/25 08:22:33;;;;;;;4.10;2.45;;;13.10;99.90;;;;;;4975730;28;89795;-29
2022/09/25 08:25:01;;;;;;;11.27;2.47;;;13.10;99.90;;;;;;4977744;28;90527;-32
2022/09/25 08:27:30;;;;;;;2.72;1.50;;;13.10;99.90;;;;;;4970261;28;88219;-29
2022/09/25 08:29:56;;;;;;;6.22;2.42;;;13.20;99.90;;;;;;4977829;28;90318;-30
2022/09/25 08:32:23;;;;;;;4.40;2.40;;;13.30;99.90;;;;;;4977801;28;91074;-32
2022/09/25 08:34:49;;;;;;;3.47;1.73;;;13.50;99.90;;;;;;4977419;28;89731;-31
2022/09/25 08:37:16;;;;;;;5.03;2.10;;;13.60;99.90;;;;;;4978221;28;88762;-32
2022/09/25 08:39:41;;;;;;;4.85;2.13;;;13.70;99.90;;;;;;4977986;28;90634;-31
2022/09/25 08:42:20;;;;;;;3.00;1.52;;;13.80;99.90;;;;;;4976863;28;90064;-29
2022/09/25 08:49:00;;;;;;;6.57;2.70;;;14.00;99.90;;;;;;4975780;28;90563;-31
2022/09/25 08:50:23;;;;;;;6.55;1.83;;;14.20;99.90;;;;;;4974467;28;90408;-31
2022/09/25 08:52:55;;;;;;;6.75;1.90;;;14.30;99.90;;;;;;4968358;28;89371;-30
2022/09/25 08:56:13;;;;;;;5.28;2.08;;;14.30;99.90;;;;;;4972934;28;89344;-30
2022/09/25 08:58:14;;;;;;;7.32;2.33;;;14.40;99.90;;;;;;4976088;28;89132;-32
2022/09/25 09:00:39;;;;;;;6.15;1.92;;;14.50;99.90;;;;;;4973526;28;90082;-31
2022/09/25 09:03:09;;;;;;;3.03;1.60;;;14.60;99.90;;;;;;4949371;28;89268;-32
2022/09/25 09:05:39;;;;;;;8.77;2.10;;;14.70;99.90;;;;;;4971148;28;89522;-33
2022/09/25 09:08:13;;;;;;;1.77;1.20;;;14.80;99.90;;;;;;4976631;28;90342;-33
2022/09/25 09:11:14;;;;;;;9.10;1.75;;;14.90;99.90;;;;;;4976053;28;90615;-32
2022/09/25 09:13:47;;;;;;;6.07;2.03;;;15.00;99.90;;;;;;4934040;28;89791;-30
2022/09/25 09:16:25;;;;;;;8.02;1.60;;;15.10;99.90;;;;;;4975515;28;90004;-29
2022/09/25 09:18:52;;;;;;;5.50;2.28;;;15.20;99.90;;;;;;4972800;28;89890;-33
2022/09/25 09:21:37;;;;;;;12.48;2.25;;;15.30;99.90;;;;;;4961515;28;90364;-32
2022/09/25 09:24:11;;;;;;;5.20;1.30;;;15.30;99.90;;;;;;4975877;28;90071;-33
2022/09/25 09:26:56;;;;;;;4.45;1.48;;;15.30;99.90;;;;;;4966876;28;89448;-30
2022/09/25 09:29:38;;;;;;;4.10;1.33;;;15.40;99.90;;;;;;4975483;28;89328;-30
2022/09/25 09:32:13;;;;;;;4.88;1.30;;;15.40;99.90;;;;;;4976226;28;89822;-30
2022/09/25 09:35:16;;;;;;;6.65;1.75;;;15.40;99.90;;;;;;4975078;28;91008;-31
2022/09/25 09:37:55;;;;;;;1.70;1.27;;;15.40;99.90;;;;;;4945530;28;90586;-31
2022/09/25 09:40:30;;;;;;;2.25;1.48;;;15.60;99.90;;;;;;4966569;28;88423;-32
2022/09/25 09:43:14;;;;;;;2.17;1.08;;;15.70;99.90;;;;;;4979604;28;90296;-29
2022/09/25 09:45:52;;;;;;;5.15;1.00;;;15.80;99.90;;;;;;4979472;28;89549;-31
2022/09/25 09:48:47;;;;;;;2.17;1.10;;;15.70;99.90;;;;;;4979155;28;89551;-30
2022/09/25 09:51:19;;;;;;;1.23;0.93;;;15.60;99.90;;;;;;4980438;28;88289;-30
2022/09/25 09:53:52;;;;;;;4.53;2.10;;;15.50;99.90;;;;;;4980385;28;90475;-30
2022/09/25 09:56:30;;;;;;;4.28;1.67;;;15.60;99.90;;;;;;4978751;28;90135;-30
2022/09/25 09:59:22;;;;;;;2.08;1.33;;;15.70;99.90;;;;;;4979191;28;89360;-30
2022/09/25 10:02:01;;;;;;;1.88;1.25;;;15.60;99.90;;;;;;4979338;28;90055;-31
2022/09/25 10:04:34;;;;;;;3.95;2.10;;;15.60;99.90;;;;;;4978730;28;88816;-33
2022/09/25 10:07:08;;;;;;;2.72;1.30;;;15.60;99.90;;;;;;4979769;28;90003;-32
2022/09/25 10:09:36;;;;;;;3.20;1.73;;;15.60;99.90;;;;;;4979009;28;89992;-31
2022/09/25 10:12:13;;;;;;;3.30;1.30;;;15.70;99.90;;;;;;4979159;28;89287;-29
2022/09/25 10:14:42;;;;;;;1.92;1.02;;;15.80;99.90;;;;;;4978938;28;90450;-30
2022/09/25 10:17:10;;;;;;;1.23;1.02;;;15.80;99.90;;;;;;4979463;28;89735;-34
2022/09/25 10:19:52;;;;;;;1.52;1.10;;;16.00;99.90;;;;;;4979238;28;89475;-33
2022/09/25 10:22:22;;;;;;;1.15;1.05;;;15.80;99.90;;;;;;4978621;28;89065;-33
2022/09/25 10:24:54;;;;;;;2.03;1.20;;;15.60;99.90;;;;;;4977986;28;90256;-33
2022/09/25 10:27:42;;;;;;;3.25;1.20;;;15.30;99.90;;;;;;4978091;28;91750;-32
2022/09/25 10:30:08;;;;;;;1.02;0.95;;;15.00;99.90;;;;;;4978911;28;90763;-30
2022/09/25 10:33:01;;;;;;;1.63;0.93;;;14.70;99.90;;;;;;4978869;28;88366;-30
2022/09/25 10:35:38;;;;;;;2.85;1.30;;;14.60;99.90;;;;;;4973559;28;91574;-31
2022/09/25 10:38:05;;;;;;;2.58;0.82;;;14.50;99.90;;;;;;4978443;28;90628;-31
2022/09/25 10:40:34;;;;;;;2.50;1.00;;;14.40;99.90;;;;;;4979395;28;89975;-29
2022/09/25 10:43:16;;;;;;;3.35;0.80;;;14.30;99.90;;;;;;4979266;28;88708;-31
2022/09/25 10:45:42;;;;;;;1.63;0.73;;;14.30;99.90;;;;;;4977610;28;89712;-32
2022/09/25 10:51:16;;;;;;;2.20;1.05;;;14.20;99.90;;;;;;4978718;28;90323;-30
2022/09/25 10:54:05;;;;;;;0.90;0.90;;;14.20;99.90;;;;;;4978945;28;89025;-29
2022/09/25 10:56:36;;;;;;;5.45;1.20;;;14.20;99.90;;;;;;4971999;28;90573;-31
2022/09/25 10:59:08;;;;;;;1.65;0.82;;;14.20;99.90;;;;;;4965075;28;89983;-33
2022/09/25 11:01:36;;;;;;;2.28;0.98;;;14.20;99.90;;;;;;4978404;28;89393;-32
2022/09/25 11:04:16;;;;;;;0.90;0.82;;;14.20;99.90;;;;;;4979484;28;90075;-30
2022/09/25 11:06:46;;;;;;;0.85;0.73;;;14.20;99.90;;;;;;4978148;28;90367;-31
2022/09/25 11:09:16;;;;;;;0.82;0.80;;;14.20;99.90;;;;;;4977981;28;89868;-31
2022/09/25 11:11:45;;;;;;;1.63;0.82;;;14.20;99.90;;;;;;4978254;28;87656;-33
2022/09/25 11:14:38;;;;;;;1.38;0.90;;;14.30;99.90;;;;;;4978115;28;88648;-32
2022/09/25 11:17:24;;;;;;;2.20;1.02;;;14.30;99.90;;;;;;4958471;28;90613;-30
2022/09/25 11:20:19;;;;;;;6.88;1.63;;;14.40;99.90;;;;;;4977128;28;91705;-30
2022/09/25 11:22:58;;;;;;;4.40;1.30;;;14.50;99.90;;;;;;4978023;28;91021;-31
2022/09/25 11:25:30;;;;;;;5.28;0.90;;;14.60;99.90;;;;;;4978232;28;88280;-31
2022/09/25 11:28:08;;;;;;;2.28;1.42;;;14.60;99.90;;;;;;4977525;28;91260;-30
2022/09/25 11:30:45;;;;;;;1.40;0.85;;;14.60;99.90;;;;;;4975928;28;89526;-32
2022/09/25 11:33:28;;;;;;;1.60;1.08;;;14.70;99.90;;;;;;4977886;28;89496;-31
2022/09/25 11:36:04;;;;;;;2.10;1.15;;;14.70;99.90;;;;;;4977808;28;90052;-31
2022/09/25 11:41:48;;;;;;;3.97;1.77;;;14.70;99.90;;;;;;4977477;28;89840;-31
2022/09/25 11:44:38;;;;;;;4.95;1.40;;;14.70;99.90;;;;;;4977748;28;90197;-32
2022/09/25 11:47:19;;;;;;;1.60;1.10;;;14.80;99.90;;;;;;4977353;28;89889;-29
2022/09/25 11:49:52;;;;;;;1.27;0.70;;;14.80;99.90;;;;;;4977609;28;89855;-29
2022/09/25 11:52:17;;;;;;;2.35;1.02;;;14.90;99.90;;;;;;4977857;28;89309;-32
2022/09/25 11:54:49;;;;;;;1.73;0.95;;;15.00;99.90;;;;;;4971920;28;89644;-31
2022/09/25 11:57:14;;;;;;;0.80;0.70;;;15.10;99.90;;;;;;4977430;28;89129;-31
2022/09/25 12:00:02;;;;;;;2.88;0.90;;;15.10;99.90;;;;;;4976809;28;91496;-31
2022/09/25 12:02:46;;;;;;;1.70;1.30;;;15.20;99.90;;;;;;4975356;28;89602;-33
2022/09/25 12:06:05;;;;;;;1.10;0.90;;;15.20;99.90;;;;;;4976224;28;89741;-34
2022/09/25 12:08:53;;;;;;;3.42;0.80;;;15.20;99.90;;;;;;4915347;28;89833;-30
2022/09/25 12:11:26;;;;;;;5.10;1.00;;;15.20;99.90;;;;;;4915467;28;90680;-31
2022/09/25 12:14:00;;;;;;;4.07;0.98;;;15.30;99.90;;;;;;4960971;28;91031;-31
2022/09/25 12:16:40;;;;;;;0.75;0.73;;;15.40;99.90;;;;;;4977026;28;89649;-32
2022/09/25 12:19:29;;;;;;;1.33;1.00;;;15.60;99.90;;;;;;4977080;28;89162;-31
2022/09/25 12:22:21;;;;;;;3.47;1.20;;;15.70;99.90;;;;;;4976829;28;91162;-31
2022/09/25 12:25:25;;;;;;;1.65;1.30;;;15.70;99.90;;;;;;4976579;28;89456;-32
2022/09/25 12:28:09;;;;;;;1.88;1.02;;;15.80;99.90;;;;;;4977533;28;88268;-31
2022/09/25 12:30:59;;;;;;;3.08;0.95;;;15.80;99.90;;;;;;4970816;28;90060;-30
2022/09/25 12:34:01;;;;;;;5.10;1.23;;;15.90;99.90;;;;;;4975687;28;92221;-30
2022/09/25 12:36:35;;;;;;;22.45;1.77;;;16.00;99.90;;;;;;4976433;28;88696;-33
2022/09/25 12:39:19;;;;;;;5.47;1.15;;;16.10;99.90;;;;;;4976638;28;89843;-30
2022/09/25 12:41:51;;;;;;;0.82;0.82;;;16.10;99.90;;;;;;4976932;28;88801;-32
2022/09/25 12:47:36;;;;;;;2.70;1.27;;;16.00;99.90;;;;;;4915809;28;90333;-29
2022/09/25 12:50:16;;;;;;;2.97;1.52;;;16.00;99.90;;;;;;4917813;28;89184;-31
2022/09/25 12:52:45;;;;;;;7.60;1.35;;;16.10;99.90;;;;;;4918382;28;88163;-32
2022/09/25 12:55:25;;;;;;;1.48;0.90;;;16.20;99.90;;;;;;4916639;28;90284;-33
2022/09/25 12:57:59;;;;;;;1.45;1.25;;;16.10;99.90;;;;;;4917258;28;90155;-32
2022/09/25 13:00:28;;;;;;;1.50;0.93;;;16.00;99.90;;;;;;4918173;28;89760;-29
2022/09/25 13:03:14;;;;;;;2.33;1.15;;;16.00;99.90;;;;;;4919114;28;88712;-30
2022/09/25 13:05:54;;;;;;;2.88;0.82;;;15.90;99.90;;;;;;4916380;28;89697;-30
2022/09/25 13:08:40;;;;;;;3.35;0.90;;;15.70;99.90;;;;;;4915829;28;90175;-30
2022/09/25 13:11:13;;;;;;;2.50;1.10;;;15.70;99.90;;;;;;4913272;28;90058;-31
2022/09/25 13:13:50;;;;;;;3.78;1.20;;;15.50;99.90;;;;;;4919627;28;88253;-30
2022/09/25 13:16:16;;;;;;;1.75;1.05;;;15.30;99.90;;;;;;4920951;28;90212;-32
2022/09/25 13:19:07;;;;;;;2.13;0.98;;;15.10;99.90;;;;;;4920550;28;90017;-33
2022/09/25 13:21:36;;;;;;;1.38;0.98;;;14.90;99.90;;;;;;4920155;28;114092;-33
2022/09/25 13:24:07;;;;;;;2.55;1.13;;;14.70;99.90;;;;;;4920459;28;89519;-29
2022/09/25 13:26:43;;;;;;;2.95;1.60;;;14.60;99.90;;;;;;4921040;28;89889;-30
2022/09/25 13:29:30;;;;;;;1.45;0.90;;;14.60;99.90;;;;;;4902306;28;89492;-31
2022/09/25 13:32:21;;;;;;;1.47;1.30;;;14.50;99.90;;;;;;4920672;28;88141;-31
2022/09/25 13:34:52;;;;;;;1.45;1.05;;;14.50;99.90;;;;;;4919664;28;89529;-29
2022/09/25 13:37:25;;;;;;;3.75;1.23;;;14.40;99.90;;;;;;4920209;28;89881;-32